sensor_id;sensor_type;location;lat;lon;timestamp;temperature;humidity
64874;HTU21D;51367;45.204;38.576;2023-03-13T00:01:28;5.09;79.61
64874;HTU21D;51367;45.204;38.576;2023-03-13T00:03:54;5.03;79.69
64874;HTU21D;51367;45.204;38.576;2023-03-13T00:06:26;5.00;79.88
64874;HTU21D;51367;45.204;38.576;2023-03-13T00:08:53;4.93;79.83
64874;HTU21D;51367;45.204;38.576;2023-03-13T00:11:19;4.88;80.00
64874;HTU21D;51367;45.204;38.576;2023-03-13T00:13:45;4.86;80.02
64874;HTU21D;51367;45.204;38.576;2023-03-13T00:16:13;4.83;80.01
64874;HTU21D;51367;45.204;38.576;2023-03-13T00:18:44;4.81;80.28
64874;HTU21D;51367;45.204;38.576;2023-03-13T00:21:12;4.81;80.12
64874;HTU21D;51367;45.204;38.576;2023-03-13T00:23:39;4.81;80.24
64874;HTU21D;51367;45.204;38.576;2023-03-13T00:26:07;4.80;80.40
64874;HTU21D;51367;45.204;38.576;2023-03-13T00:28:35;4.76;80.21
64874;HTU21D;51367;45.204;38.576;2023-03-13T00:31:02;4.75;80.28
64874;HTU21D;51367;45.204;38.576;2023-03-13T00:33:30;4.72;80.46
64874;HTU21D;51367;45.204;38.576;2023-03-13T00:36:03;4.72;80.46
64874;HTU21D;51367;45.204;38.576;2023-03-13T00:38:31;4.71;80.50
64874;HTU21D;51367;45.204;38.576;2023-03-13T00:41:02;4.68;80.76
64874;HTU21D;51367;45.204;38.576;2023-03-13T00:43:29;4.65;80.81
64874;HTU21D;51367;45.204;38.576;2023-03-13T00:45:55;4.61;80.89
64874;HTU21D;51367;45.204;38.576;2023-03-13T00:48:22;4.57;80.97
64874;HTU21D;51367;45.204;38.576;2023-03-13T00:50:48;4.56;81.07
64874;HTU21D;51367;45.204;38.576;2023-03-13T00:53:14;4.54;81.00
64874;HTU21D;51367;45.204;38.576;2023-03-13T00:55:54;4.52;81.30
64874;HTU21D;51367;45.204;38.576;2023-03-13T00:58:22;4.53;81.13
64874;HTU21D;51367;45.204;38.576;2023-03-13T01:00:48;4.56;81.17
64874;HTU21D;51367;45.204;38.576;2023-03-13T01:03:14;4.53;81.64
64874;HTU21D;51367;45.204;38.576;2023-03-13T01:05:41;4.50;81.55
64874;HTU21D;51367;45.204;38.576;2023-03-13T01:08:07;4.49;81.31
64874;HTU21D;51367;45.204;38.576;2023-03-13T01:10:33;4.47;81.41
64874;HTU21D;51367;45.204;38.576;2023-03-13T01:13:00;4.44;81.97
64874;HTU21D;51367;45.204;38.576;2023-03-13T01:15:26;4.39;82.14
64874;HTU21D;51367;45.204;38.576;2023-03-13T01:17:52;4.36;81.88
64874;HTU21D;51367;45.204;38.576;2023-03-13T01:20:18;4.32;81.15
64874;HTU21D;51367;45.204;38.576;2023-03-13T01:22:43;4.26;79.77
64874;HTU21D;51367;45.204;38.576;2023-03-13T01:25:09;4.19;79.50
64874;HTU21D;51367;45.204;38.576;2023-03-13T01:27:35;4.14;79.23
64874;HTU21D;51367;45.204;38.576;2023-03-13T01:30:01;4.12;79.48
64874;HTU21D;51367;45.204;38.576;2023-03-13T01:32:27;4.10;79.65
64874;HTU21D;51367;45.204;38.576;2023-03-13T01:34:53;4.10;79.72
64874;HTU21D;51367;45.204;38.576;2023-03-13T01:37:19;4.07;79.72
64874;HTU21D;51367;45.204;38.576;2023-03-13T01:39:45;4.07;79.82
64874;HTU21D;51367;45.204;38.576;2023-03-13T01:42:11;4.07;79.76
64874;HTU21D;51367;45.204;38.576;2023-03-13T01:44:56;4.03;79.46
64874;HTU21D;51367;45.204;38.576;2023-03-13T01:47:24;4.00;79.40
64874;HTU21D;51367;45.204;38.576;2023-03-13T01:50:03;3.93;79.31
64874;HTU21D;51367;45.204;38.576;2023-03-13T01:52:56;3.87;79.38
64874;HTU21D;51367;45.204;38.576;2023-03-13T01:55:27;3.83;79.45
64874;HTU21D;51367;45.204;38.576;2023-03-13T01:57:53;3.78;79.53
64874;HTU21D;51367;45.204;38.576;2023-03-13T02:00:23;3.74;79.43
64874;HTU21D;51367;45.204;38.576;2023-03-13T02:02:54;3.70;79.30
64874;HTU21D;51367;45.204;38.576;2023-03-13T02:05:24;3.68;79.26
64874;HTU21D;51367;45.204;38.576;2023-03-13T02:07:58;3.68;79.27
64874;HTU21D;51367;45.204;38.576;2023-03-13T02:10:28;3.67;79.20
64874;HTU21D;51367;45.204;38.576;2023-03-13T02:12:56;3.64;79.18
64874;HTU21D;51367;45.204;38.576;2023-03-13T02:15:25;3.62;79.22
64874;HTU21D;51367;45.204;38.576;2023-03-13T02:17:52;3.58;79.29
64874;HTU21D;51367;45.204;38.576;2023-03-13T02:20:20;3.55;79.36
64874;HTU21D;51367;45.204;38.576;2023-03-13T02:23:01;3.54;79.31
64874;HTU21D;51367;45.204;38.576;2023-03-13T02:25:44;3.52;79.18
64874;HTU21D;51367;45.204;38.576;2023-03-13T02:28:19;3.47;79.20
64874;HTU21D;51367;45.204;38.576;2023-03-13T02:30:48;3.48;79.23
64874;HTU21D;51367;45.204;38.576;2023-03-13T02:33:15;3.47;79.32
64874;HTU21D;51367;45.204;38.576;2023-03-13T02:35:45;3.46;79.24
64874;HTU21D;51367;45.204;38.576;2023-03-13T02:38:23;3.42;79.18
64874;HTU21D;51367;45.204;38.576;2023-03-13T02:40:51;3.40;79.24
64874;HTU21D;51367;45.204;38.576;2023-03-13T02:43:29;3.39;79.18
64874;HTU21D;51367;45.204;38.576;2023-03-13T02:46:10;3.35;78.98
64874;HTU21D;51367;45.204;38.576;2023-03-13T02:48:51;3.31;79.09
64874;HTU21D;51367;45.204;38.576;2023-03-13T02:51:40;3.31;79.21
64874;HTU21D;51367;45.204;38.576;2023-03-13T02:54:20;3.31;79.21
64874;HTU21D;51367;45.204;38.576;2023-03-13T02:56:49;3.30;79.24
64874;HTU21D;51367;45.204;38.576;2023-03-13T02:59:16;3.30;79.34
64874;HTU21D;51367;45.204;38.576;2023-03-13T03:01:44;3.29;79.22
64874;HTU21D;51367;45.204;38.576;2023-03-13T03:04:10;3.29;79.33
64874;HTU21D;51367;45.204;38.576;2023-03-13T03:06:37;3.27;79.37
64874;HTU21D;51367;45.204;38.576;2023-03-13T03:09:04;3.26;79.24
64874;HTU21D;51367;45.204;38.576;2023-03-13T03:11:33;3.26;79.41
64874;HTU21D;51367;45.204;38.576;2023-03-13T03:14:04;3.27;79.37
64874;HTU21D;51367;45.204;38.576;2023-03-13T03:16:37;3.27;79.36
64874;HTU21D;51367;45.204;38.576;2023-03-13T03:19:05;3.26;79.34
64874;HTU21D;51367;45.204;38.576;2023-03-13T03:21:32;3.23;79.34
64874;HTU21D;51367;45.204;38.576;2023-03-13T03:23:58;3.23;79.54
64874;HTU21D;51367;45.204;38.576;2023-03-13T03:26:24;3.21;79.45
64874;HTU21D;51367;45.204;38.576;2023-03-13T03:28:51;3.17;79.51
64874;HTU21D;51367;45.204;38.576;2023-03-13T03:31:17;3.15;79.57
64874;HTU21D;51367;45.204;38.576;2023-03-13T03:33:44;3.12;79.51
64874;HTU21D;51367;45.204;38.576;2023-03-13T03:36:19;3.10;79.53
64874;HTU21D;51367;45.204;38.576;2023-03-13T03:38:46;3.08;79.59
64874;HTU21D;51367;45.204;38.576;2023-03-13T03:41:15;3.05;79.58
64874;HTU21D;51367;45.204;38.576;2023-03-13T03:43:42;3.04;79.75
64874;HTU21D;51367;45.204;38.576;2023-03-13T03:46:10;3.02;79.84
64874;HTU21D;51367;45.204;38.576;2023-03-13T03:48:37;2.97;80.05
64874;HTU21D;51367;45.204;38.576;2023-03-13T03:51:05;2.93;79.88
64874;HTU21D;51367;45.204;38.576;2023-03-13T03:53:34;2.94;79.88
64874;HTU21D;51367;45.204;38.576;2023-03-13T03:56:00;2.94;79.85
64874;HTU21D;51367;45.204;38.576;2023-03-13T03:58:27;2.94;79.81
64874;HTU21D;51367;45.204;38.576;2023-03-13T04:01:07;2.93;79.81
64874;HTU21D;51367;45.204;38.576;2023-03-13T04:03:33;2.90;79.90
64874;HTU21D;51367;45.204;38.576;2023-03-13T04:05:59;2.90;79.91
64874;HTU21D;51367;45.204;38.576;2023-03-13T04:08:25;2.88;79.87
64874;HTU21D;51367;45.204;38.576;2023-03-13T04:10:51;2.88;80.02
64874;HTU21D;51367;45.204;38.576;2023-03-13T04:13:21;2.90;79.83
64874;HTU21D;51367;45.204;38.576;2023-03-13T04:15:47;2.90;79.90
64874;HTU21D;51367;45.204;38.576;2023-03-13T04:18:15;2.88;79.85
64874;HTU21D;51367;45.204;38.576;2023-03-13T04:20:42;2.90;79.84
64874;HTU21D;51367;45.204;38.576;2023-03-13T04:23:09;2.93;79.82
64874;HTU21D;51367;45.204;38.576;2023-03-13T04:25:35;2.94;79.72
64874;HTU21D;51367;45.204;38.576;2023-03-13T04:28:04;2.95;79.62
64874;HTU21D;51367;45.204;38.576;2023-03-13T04:30:37;2.96;79.69
64874;HTU21D;51367;45.204;38.576;2023-03-13T04:33:32;2.96;79.49
64874;HTU21D;51367;45.204;38.576;2023-03-13T04:36:14;2.95;79.43
64874;HTU21D;51367;45.204;38.576;2023-03-13T04:38:57;2.90;79.46
64874;HTU21D;51367;45.204;38.576;2023-03-13T04:41:36;2.91;79.43
64874;HTU21D;51367;45.204;38.576;2023-03-13T04:44:10;2.90;79.43
64874;HTU21D;51367;45.204;38.576;2023-03-13T04:46:59;2.89;79.45
64874;HTU21D;51367;45.204;38.576;2023-03-13T04:49:54;2.90;79.47
64874;HTU21D;51367;45.204;38.576;2023-03-13T04:52:49;2.96;79.43
64874;HTU21D;51367;45.204;38.576;2023-03-13T04:55:30;2.99;78.90
64874;HTU21D;51367;45.204;38.576;2023-03-13T04:58:05;2.99;79.08
64874;HTU21D;51367;45.204;38.576;2023-03-13T05:00:55;3.00;79.07
64874;HTU21D;51367;45.204;38.576;2023-03-13T05:03:39;3.06;78.91
64874;HTU21D;51367;45.204;38.576;2023-03-13T05:06:34;3.09;78.88
64874;HTU21D;51367;45.204;38.576;2023-03-13T05:09:20;3.10;78.55
64874;HTU21D;51367;45.204;38.576;2023-03-13T05:12:05;3.13;78.70
64874;HTU21D;51367;45.204;38.576;2023-03-13T05:15:00;3.14;78.78
64874;HTU21D;51367;45.204;38.576;2023-03-13T05:17:52;3.15;78.76
64874;HTU21D;51367;45.204;38.576;2023-03-13T05:20:30;3.17;78.39
64874;HTU21D;51367;45.204;38.576;2023-03-13T05:23:07;3.18;78.62
64874;HTU21D;51367;45.204;38.576;2023-03-13T05:25:33;3.20;78.59
64874;HTU21D;51367;45.204;38.576;2023-03-13T05:28:14;3.19;78.44
64874;HTU21D;51367;45.204;38.576;2023-03-13T05:31:15;3.23;78.35
64874;HTU21D;51367;45.204;38.576;2023-03-13T05:33:43;3.24;78.49
64874;HTU21D;51367;45.204;38.576;2023-03-13T05:36:38;3.26;78.50
64874;HTU21D;51367;45.204;38.576;2023-03-13T05:39:24;3.32;78.43
64874;HTU21D;51367;45.204;38.576;2023-03-13T05:42:10;3.39;78.55
64874;HTU21D;51367;45.204;38.576;2023-03-13T05:44:48;3.43;78.16
64874;HTU21D;51367;45.204;38.576;2023-03-13T05:47:35;3.46;77.70
64874;HTU21D;51367;45.204;38.576;2023-03-13T05:50:10;3.44;77.73
64874;HTU21D;51367;45.204;38.576;2023-03-13T05:52:55;3.48;77.87
64874;HTU21D;51367;45.204;38.576;2023-03-13T05:55:41;3.50;77.31
64874;HTU21D;51367;45.204;38.576;2023-03-13T05:58:35;3.54;77.45
64874;HTU21D;51367;45.204;38.576;2023-03-13T06:01:09;3.56;77.63
64874;HTU21D;51367;45.204;38.576;2023-03-13T06:03:38;3.62;77.89
64874;HTU21D;51367;45.204;38.576;2023-03-13T06:06:04;3.64;77.42
64874;HTU21D;51367;45.204;38.576;2023-03-13T06:08:38;3.67;77.12
64874;HTU21D;51367;45.204;38.576;2023-03-13T06:11:04;3.68;76.66
64874;HTU21D;51367;45.204;38.576;2023-03-13T06:13:32;3.71;76.95
64874;HTU21D;51367;45.204;38.576;2023-03-13T06:16:03;3.75;76.57
64874;HTU21D;51367;45.204;38.576;2023-03-13T06:18:42;3.80;76.83
64874;HTU21D;51367;45.204;38.576;2023-03-13T06:21:08;3.89;76.57
64874;HTU21D;51367;45.204;38.576;2023-03-13T06:23:35;3.94;76.10
64874;HTU21D;51367;45.204;38.576;2023-03-13T06:26:01;4.00;76.42
64874;HTU21D;51367;45.204;38.576;2023-03-13T06:28:27;4.04;75.99
64874;HTU21D;51367;45.204;38.576;2023-03-13T06:30:53;4.03;75.44
64874;HTU21D;51367;45.204;38.576;2023-03-13T06:33:20;4.08;76.06
64874;HTU21D;51367;45.204;38.576;2023-03-13T06:35:46;4.09;75.54
64874;HTU21D;51367;45.204;38.576;2023-03-13T06:38:12;4.12;75.26
64874;HTU21D;51367;45.204;38.576;2023-03-13T06:40:38;4.16;75.79
64874;HTU21D;51367;45.204;38.576;2023-03-13T06:43:03;4.26;75.86
64874;HTU21D;51367;45.204;38.576;2023-03-13T06:45:29;4.28;75.01
64874;HTU21D;51367;45.204;38.576;2023-03-13T06:47:55;4.30;74.80
64874;HTU21D;51367;45.204;38.576;2023-03-13T06:50:21;4.32;75.15
64874;HTU21D;51367;45.204;38.576;2023-03-13T06:52:48;4.36;75.42
64874;HTU21D;51367;45.204;38.576;2023-03-13T06:55:14;4.41;74.35
64874;HTU21D;51367;45.204;38.576;2023-03-13T06:57:40;4.46;74.81
64874;HTU21D;51367;45.204;38.576;2023-03-13T07:00:07;4.52;75.00
64874;HTU21D;51367;45.204;38.576;2023-03-13T07:02:36;4.64;74.47
64874;HTU21D;51367;45.204;38.576;2023-03-13T07:05:02;4.76;75.17
64874;HTU21D;51367;45.204;38.576;2023-03-13T07:07:31;4.93;75.32
64874;HTU21D;51367;45.204;38.576;2023-03-13T07:09:58;5.11;75.28
64874;HTU21D;51367;45.204;38.576;2023-03-13T07:12:24;5.26;73.09
64874;HTU21D;51367;45.204;38.576;2023-03-13T07:14:50;5.31;74.06
64874;HTU21D;51367;45.204;38.576;2023-03-13T07:17:16;5.37;74.04
64874;HTU21D;51367;45.204;38.576;2023-03-13T07:19:42;5.38;72.48
64874;HTU21D;51367;45.204;38.576;2023-03-13T07:22:08;5.42;73.70
64874;HTU21D;51367;45.204;38.576;2023-03-13T07:24:33;5.48;73.04
64874;HTU21D;51367;45.204;38.576;2023-03-13T07:26:59;5.54;72.61
64874;HTU21D;51367;45.204;38.576;2023-03-13T07:29:25;5.59;72.77
64874;HTU21D;51367;45.204;38.576;2023-03-13T07:31:51;5.65;71.75
64874;HTU21D;51367;45.204;38.576;2023-03-13T07:34:17;5.76;71.40
64874;HTU21D;51367;45.204;38.576;2023-03-13T07:36:43;5.77;70.21
64874;HTU21D;51367;45.204;38.576;2023-03-13T07:39:09;5.76;70.64
64874;HTU21D;51367;45.204;38.576;2023-03-13T07:41:35;5.74;69.29
64874;HTU21D;51367;45.204;38.576;2023-03-13T07:44:01;5.75;69.88
64874;HTU21D;51367;45.204;38.576;2023-03-13T07:46:27;5.74;67.97
64874;HTU21D;51367;45.204;38.576;2023-03-13T07:48:53;5.77;69.99
64874;HTU21D;51367;45.204;38.576;2023-03-13T07:51:22;5.87;69.72
64874;HTU21D;51367;45.204;38.576;2023-03-13T07:53:48;5.94;69.80
64874;HTU21D;51367;45.204;38.576;2023-03-13T07:56:17;6.02;69.65
64874;HTU21D;51367;45.204;38.576;2023-03-13T07:58:44;6.11;69.21
64874;HTU21D;51367;45.204;38.576;2023-03-13T08:01:15;6.17;70.28
64874;HTU21D;51367;45.204;38.576;2023-03-13T08:03:42;6.29;70.29
64874;HTU21D;51367;45.204;38.576;2023-03-13T08:06:13;6.42;69.52
64874;HTU21D;51367;45.204;38.576;2023-03-13T08:08:39;6.45;66.91
64874;HTU21D;51367;45.204;38.576;2023-03-13T08:11:09;6.48;67.93
64874;HTU21D;51367;45.204;38.576;2023-03-13T08:13:35;6.46;67.08
64874;HTU21D;51367;45.204;38.576;2023-03-13T08:16:15;6.43;67.81
64874;HTU21D;51367;45.204;38.576;2023-03-13T08:18:44;6.40;66.93
64874;HTU21D;51367;45.204;38.576;2023-03-13T08:21:13;6.38;65.59
64874;HTU21D;51367;45.204;38.576;2023-03-13T08:23:39;6.34;66.13
64874;HTU21D;51367;45.204;38.576;2023-03-13T08:26:10;6.29;64.47
64874;HTU21D;51367;45.204;38.576;2023-03-13T08:28:37;6.28;65.51
64874;HTU21D;51367;45.204;38.576;2023-03-13T08:31:18;6.30;66.78
64874;HTU21D;51367;45.204;38.576;2023-03-13T08:33:45;6.35;65.75
64874;HTU21D;51367;45.204;38.576;2023-03-13T08:36:20;6.38;65.72
64874;HTU21D;51367;45.204;38.576;2023-03-13T08:38:48;6.43;66.06
64874;HTU21D;51367;45.204;38.576;2023-03-13T08:41:16;6.44;65.56
64874;HTU21D;51367;45.204;38.576;2023-03-13T08:43:43;6.51;65.86
64874;HTU21D;51367;45.204;38.576;2023-03-13T08:46:09;6.57;65.95
64874;HTU21D;51367;45.204;38.576;2023-03-13T08:48:35;6.68;66.62
64874;HTU21D;51367;45.204;38.576;2023-03-13T08:51:02;6.71;64.59
64874;HTU21D;51367;45.204;38.576;2023-03-13T08:53:29;6.71;65.28
64874;HTU21D;51367;45.204;38.576;2023-03-13T08:55:55;6.69;64.20
64874;HTU21D;51367;45.204;38.576;2023-03-13T08:58:22;6.65;63.77
64874;HTU21D;51367;45.204;38.576;2023-03-13T09:00:48;6.59;63.80
64874;HTU21D;51367;45.204;38.576;2023-03-13T09:03:14;6.56;63.62
64874;HTU21D;51367;45.204;38.576;2023-03-13T09:05:40;6.57;65.07
64874;HTU21D;51367;45.204;38.576;2023-03-13T09:08:05;6.58;64.42
64874;HTU21D;51367;45.204;38.576;2023-03-13T09:10:32;6.63;64.47
64874;HTU21D;51367;45.204;38.576;2023-03-13T09:12:58;6.59;64.39
64874;HTU21D;51367;45.204;38.576;2023-03-13T09:15:24;6.58;63.50
64874;HTU21D;51367;45.204;38.576;2023-03-13T09:17:50;6.61;64.63
64874;HTU21D;51367;45.204;38.576;2023-03-13T09:20:16;6.71;64.28
64874;HTU21D;51367;45.204;38.576;2023-03-13T09:22:44;6.84;65.08
64874;HTU21D;51367;45.204;38.576;2023-03-13T09:25:10;6.96;65.35
64874;HTU21D;51367;45.204;38.576;2023-03-13T09:27:37;7.11;64.71
64874;HTU21D;51367;45.204;38.576;2023-03-13T09:30:03;7.22;64.72
64874;HTU21D;51367;45.204;38.576;2023-03-13T09:32:29;7.31;64.11
64874;HTU21D;51367;45.204;38.576;2023-03-13T09:34:55;7.39;64.41
64874;HTU21D;51367;45.204;38.576;2023-03-13T09:37:21;7.42;62.96
64874;HTU21D;51367;45.204;38.576;2023-03-13T09:39:48;7.50;64.32
64874;HTU21D;51367;45.204;38.576;2023-03-13T09:42:23;7.60;62.54
64874;HTU21D;51367;45.204;38.576;2023-03-13T09:45:00;7.63;63.46
64874;HTU21D;51367;45.204;38.576;2023-03-13T09:47:42;7.67;63.56
64874;HTU21D;51367;45.204;38.576;2023-03-13T09:50:11;7.65;63.28
64874;HTU21D;51367;45.204;38.576;2023-03-13T09:52:39;7.60;61.46
64874;HTU21D;51367;45.204;38.576;2023-03-13T09:55:16;7.53;62.65
64874;HTU21D;51367;45.204;38.576;2023-03-13T09:57:49;7.48;62.83
64874;HTU21D;51367;45.204;38.576;2023-03-13T10:00:23;7.48;63.27
64874;HTU21D;51367;45.204;38.576;2023-03-13T10:05:37;7.69;63.47
64874;HTU21D;51367;45.204;38.576;2023-03-13T10:08:30;7.79;63.72
64874;HTU21D;51367;45.204;38.576;2023-03-13T10:11:08;7.83;62.84
64874;HTU21D;51367;45.204;38.576;2023-03-13T10:19:13;8.19;63.56
64874;HTU21D;51367;45.204;38.576;2023-03-13T10:21:41;8.36;63.82
64874;HTU21D;51367;45.204;38.576;2023-03-13T10:24:13;8.57;63.79
64874;HTU21D;51367;45.204;38.576;2023-03-13T10:26:41;8.67;62.52
64874;HTU21D;51367;45.204;38.576;2023-03-13T10:29:27;8.76;63.08
64874;HTU21D;51367;45.204;38.576;2023-03-13T10:31:56;8.78;61.25
64874;HTU21D;51367;45.204;38.576;2023-03-13T10:34:24;8.75;61.93
64874;HTU21D;51367;45.204;38.576;2023-03-13T10:36:56;8.66;62.88
64874;HTU21D;51367;45.204;38.576;2023-03-13T10:39:26;8.66;62.76
64874;HTU21D;51367;45.204;38.576;2023-03-13T10:42:09;8.62;60.84
64874;HTU21D;51367;45.204;38.576;2023-03-13T10:44:36;8.42;61.28
64874;HTU21D;51367;45.204;38.576;2023-03-13T10:47:03;8.35;61.53
64874;HTU21D;51367;45.204;38.576;2023-03-13T10:49:30;8.34;62.41
64874;HTU21D;51367;45.204;38.576;2023-03-13T10:52:03;8.22;61.82
64874;HTU21D;51367;45.204;38.576;2023-03-13T10:54:33;8.13;61.73
64874;HTU21D;51367;45.204;38.576;2023-03-13T10:57:28;8.19;61.99
64874;HTU21D;51367;45.204;38.576;2023-03-13T10:59:55;8.22;61.78
64874;HTU21D;51367;45.204;38.576;2023-03-13T11:04:53;8.46;62.39
64874;HTU21D;51367;45.204;38.576;2023-03-13T11:07:34;8.63;62.59
64874;HTU21D;51367;45.204;38.576;2023-03-13T11:12:34;8.65;60.28
64874;HTU21D;51367;45.204;38.576;2023-03-13T11:15:01;8.63;61.73
64874;HTU21D;51367;45.204;38.576;2023-03-13T11:17:40;8.74;61.92
64874;HTU21D;51367;45.204;38.576;2023-03-13T11:20:27;8.92;61.50
64874;HTU21D;51367;45.204;38.576;2023-03-13T11:28:44;8.93;60.38
64874;HTU21D;51367;45.204;38.576;2023-03-13T11:31:17;8.86;60.90
64874;HTU21D;51367;45.204;38.576;2023-03-13T11:40:02;8.87;60.67
64874;HTU21D;51367;45.204;38.576;2023-03-13T11:43:02;8.79;59.93
64874;HTU21D;51367;45.204;38.576;2023-03-13T11:46:01;8.81;60.89
64874;HTU21D;51367;45.204;38.576;2023-03-13T11:48:54;8.77;59.90
64874;HTU21D;51367;45.204;38.576;2023-03-13T11:56:57;8.48;60.61
64874;HTU21D;51367;45.204;38.576;2023-03-13T12:02:32;8.72;61.02
64874;HTU21D;51367;45.204;38.576;2023-03-13T12:05:07;8.76;59.44
64874;HTU21D;51367;45.204;38.576;2023-03-13T12:07:39;8.63;60.15
64874;HTU21D;51367;45.204;38.576;2023-03-13T12:10:13;8.52;60.34
64874;HTU21D;51367;45.204;38.576;2023-03-13T12:13:03;8.50;60.32
64874;HTU21D;51367;45.204;38.576;2023-03-13T12:15:36;8.61;60.88
64874;HTU21D;51367;45.204;38.576;2023-03-13T12:18:08;8.81;60.22
64874;HTU21D;51367;45.204;38.576;2023-03-13T12:28:42;8.90;59.27
64874;HTU21D;51367;45.204;38.576;2023-03-13T12:31:28;8.88;59.96
64874;HTU21D;51367;45.204;38.576;2023-03-13T12:41:43;9.04;56.30
64874;HTU21D;51367;45.204;38.576;2023-03-13T12:44:17;8.90;57.10
64874;HTU21D;51367;45.204;38.576;2023-03-13T12:47:06;8.70;55.81
64874;HTU21D;51367;45.204;38.576;2023-03-13T13:00:56;8.46;57.32
64874;HTU21D;51367;45.204;38.576;2023-03-13T13:03:39;8.29;57.45
64874;HTU21D;51367;45.204;38.576;2023-03-13T13:06:14;8.31;58.87
64874;HTU21D;51367;45.204;38.576;2023-03-13T13:08:43;8.39;58.23
64874;HTU21D;51367;45.204;38.576;2023-03-13T13:13:59;8.53;56.79
64874;HTU21D;51367;45.204;38.576;2023-03-13T13:16:27;8.41;56.81
64874;HTU21D;51367;45.204;38.576;2023-03-13T13:18:53;8.26;57.97
64874;HTU21D;51367;45.204;38.576;2023-03-13T13:21:23;8.20;58.52
64874;HTU21D;51367;45.204;38.576;2023-03-13T13:23:51;8.15;59.02
64874;HTU21D;51367;45.204;38.576;2023-03-13T13:37:01;8.24;58.55
64874;HTU21D;51367;45.204;38.576;2023-03-13T13:39:43;8.17;58.75
64874;HTU21D;51367;45.204;38.576;2023-03-13T13:47:41;7.98;59.61
64874;HTU21D;51367;45.204;38.576;2023-03-13T13:50:23;8.05;59.75
64874;HTU21D;51367;45.204;38.576;2023-03-13T13:52:50;8.12;59.19
64874;HTU21D;51367;45.204;38.576;2023-03-13T13:58:01;8.22;59.05
64874;HTU21D;51367;45.204;38.576;2023-03-13T14:00:38;8.18;59.04
64874;HTU21D;51367;45.204;38.576;2023-03-13T14:03:19;8.12;58.75
64874;HTU21D;51367;45.204;38.576;2023-03-13T14:05:47;8.03;59.26
64874;HTU21D;51367;45.204;38.576;2023-03-13T14:08:29;7.98;59.66
64874;HTU21D;51367;45.204;38.576;2023-03-13T14:16:38;7.93;59.73
64874;HTU21D;51367;45.204;38.576;2023-03-13T14:19:04;7.92;58.67
64874;HTU21D;51367;45.204;38.576;2023-03-13T14:21:31;7.87;58.96
64874;HTU21D;51367;45.204;38.576;2023-03-13T14:23:57;7.85;59.77
64874;HTU21D;51367;45.204;38.576;2023-03-13T14:26:25;7.84;59.77
64874;HTU21D;51367;45.204;38.576;2023-03-13T14:28:57;7.82;59.70
64874;HTU21D;51367;45.204;38.576;2023-03-13T14:31:27;7.76;59.77
64874;HTU21D;51367;45.204;38.576;2023-03-13T14:33:55;7.72;59.99
64874;HTU21D;51367;45.204;38.576;2023-03-13T14:36:22;7.65;60.11
64874;HTU21D;51367;45.204;38.576;2023-03-13T14:43:51;7.49;60.58
64874;HTU21D;51367;45.204;38.576;2023-03-13T14:46:30;7.42;60.73
64874;HTU21D;51367;45.204;38.576;2023-03-13T14:49:05;7.35;60.79
64874;HTU21D;51367;45.204;38.576;2023-03-13T14:51:37;7.28;61.04
64874;HTU21D;51367;45.204;38.576;2023-03-13T14:54:03;7.22;61.22
64874;HTU21D;51367;45.204;38.576;2023-03-13T14:59:26;7.03;61.14
64874;HTU21D;51367;45.204;38.576;2023-03-13T15:02:13;6.95;61.28
64874;HTU21D;51367;45.204;38.576;2023-03-13T15:05:03;6.85;61.46
64874;HTU21D;51367;45.204;38.576;2023-03-13T15:07:41;6.78;61.64
64874;HTU21D;51367;45.204;38.576;2023-03-13T15:10:34;6.66;61.85
64874;HTU21D;51367;45.204;38.576;2023-03-13T15:15:57;6.50;62.18
64874;HTU21D;51367;45.204;38.576;2023-03-13T15:18:26;6.44;62.31
64874;HTU21D;51367;45.204;38.576;2023-03-13T15:20:56;6.37;62.46
64874;HTU21D;51367;45.204;38.576;2023-03-13T15:23:23;6.30;62.57
64874;HTU21D;51367;45.204;38.576;2023-03-13T15:25:49;6.23;62.73
64874;HTU21D;51367;45.204;38.576;2023-03-13T15:28:20;6.15;62.84
64874;HTU21D;51367;45.204;38.576;2023-03-13T15:30:49;6.09;63.04
64874;HTU21D;51367;45.204;38.576;2023-03-13T15:33:18;6.02;63.08
64874;HTU21D;51367;45.204;38.576;2023-03-13T15:35:45;5.96;63.20
64874;HTU21D;51367;45.204;38.576;2023-03-13T15:38:14;5.92;63.33
64874;HTU21D;51367;45.204;38.576;2023-03-13T15:40:41;5.86;63.47
64874;HTU21D;51367;45.204;38.576;2023-03-13T15:43:07;5.83;63.50
64874;HTU21D;51367;45.204;38.576;2023-03-13T15:45:35;5.77;63.64
64874;HTU21D;51367;45.204;38.576;2023-03-13T15:48:02;5.69;63.72
64874;HTU21D;51367;45.204;38.576;2023-03-13T15:50:28;5.67;63.82
64874;HTU21D;51367;45.204;38.576;2023-03-13T15:52:57;5.63;63.90
64874;HTU21D;51367;45.204;38.576;2023-03-13T15:55:26;5.60;63.98
64874;HTU21D;51367;45.204;38.576;2023-03-13T15:57:53;5.56;64.10
64874;HTU21D;51367;45.204;38.576;2023-03-13T16:00:24;5.54;64.19
64874;HTU21D;51367;45.204;38.576;2023-03-13T16:02:51;5.53;64.40
64874;HTU21D;51367;45.204;38.576;2023-03-13T16:05:17;5.53;64.36
64874;HTU21D;51367;45.204;38.576;2023-03-13T16:07:43;5.51;64.45
64874;HTU21D;51367;45.204;38.576;2023-03-13T16:10:19;5.50;64.52
64874;HTU21D;51367;45.204;38.576;2023-03-13T16:12:46;5.47;64.76
64874;HTU21D;51367;45.204;38.576;2023-03-13T16:15:12;5.42;65.19
64874;HTU21D;51367;45.204;38.576;2023-03-13T16:17:38;5.43;64.99
64874;HTU21D;51367;45.204;38.576;2023-03-13T16:22:37;5.35;65.07
64874;HTU21D;51367;45.204;38.576;2023-03-13T16:25:03;5.30;65.06
64874;HTU21D;51367;45.204;38.576;2023-03-13T16:27:29;5.25;65.21
64874;HTU21D;51367;45.204;38.576;2023-03-13T16:29:55;5.19;65.30
64874;HTU21D;51367;45.204;38.576;2023-03-13T16:32:21;5.15;65.56
64874;HTU21D;51367;45.204;38.576;2023-03-13T16:34:49;5.09;65.41
64874;HTU21D;51367;45.204;38.576;2023-03-13T16:37:17;5.05;65.46
64874;HTU21D;51367;45.204;38.576;2023-03-13T16:39:44;5.01;65.43
64874;HTU21D;51367;45.204;38.576;2023-03-13T16:42:10;4.95;65.72
64874;HTU21D;51367;45.204;38.576;2023-03-13T16:44:36;4.89;65.88
64874;HTU21D;51367;45.204;38.576;2023-03-13T16:47:13;4.83;66.46
64874;HTU21D;51367;45.204;38.576;2023-03-13T16:49:40;4.76;66.78
64874;HTU21D;51367;45.204;38.576;2023-03-13T16:52:12;4.71;66.72
64874;HTU21D;51367;45.204;38.576;2023-03-13T16:54:38;4.66;66.51
64874;HTU21D;51367;45.204;38.576;2023-03-13T16:57:12;4.62;66.49
64874;HTU21D;51367;45.204;38.576;2023-03-13T16:59:38;4.58;66.60
64874;HTU21D;51367;45.204;38.576;2023-03-13T17:02:13;4.51;66.58
64874;HTU21D;51367;45.204;38.576;2023-03-13T17:04:39;4.48;66.69
64874;HTU21D;51367;45.204;38.576;2023-03-13T17:07:20;4.42;66.48
64874;HTU21D;51367;45.204;38.576;2023-03-13T17:09:48;4.35;66.56
64874;HTU21D;51367;45.204;38.576;2023-03-13T17:12:15;4.28;67.10
64874;HTU21D;51367;45.204;38.576;2023-03-13T17:14:42;4.21;66.94
64874;HTU21D;51367;45.204;38.576;2023-03-13T17:17:18;4.17;66.90
64874;HTU21D;51367;45.204;38.576;2023-03-13T17:19:46;4.14;66.85
64874;HTU21D;51367;45.204;38.576;2023-03-13T17:22:14;4.09;66.89